createdAt,value
2022-08-31T00:02:33.446Z,101927.56
2022-08-31T00:05:01.782Z,101921.75
2022-08-31T00:07:40.214Z,101917.19
2022-08-31T00:10:15.266Z,101915.66
2022-08-31T00:12:44.294Z,101916.19
2022-08-31T00:15:18.313Z,101914.28
2022-08-31T00:17:47.368Z,101914.94
2022-08-31T00:20:32.885Z,101920.38
2022-08-31T00:23:02.925Z,101914.94
2022-08-31T00:25:34.519Z,101909.81
2022-08-31T00:28:03.155Z,101917.59
2022-08-31T00:30:32.079Z,101914.34
2022-08-31T00:33:03.343Z,101913.84
2022-08-31T00:35:38.138Z,101912.47
2022-08-31T00:38:11.509Z,101918.69
2022-08-31T00:40:51.064Z,101927.03
2022-08-31T00:43:41.885Z,101932.78
2022-08-31T00:46:12.792Z,101924.97
2022-08-31T00:48:52.587Z,101935.13
2022-08-31T00:51:21.428Z,101936.13
2022-08-31T00:53:51.472Z,101939.50
2022-08-31T00:56:22.424Z,101931.50
2022-08-31T00:58:54.914Z,101935.25
2022-08-31T01:01:24.080Z,101942.38
2022-08-31T01:04:02.005Z,101941.00
2022-08-31T01:06:30.415Z,101941.88
2022-08-31T01:09:02.961Z,101937.94
2022-08-31T01:11:34.007Z,101928.06
2022-08-31T01:14:03.615Z,101934.13
2022-08-31T01:16:36.772Z,101937.69
2022-08-31T01:19:09.179Z,101939.75
2022-08-31T01:21:44.555Z,101942.75
2022-08-31T01:24:15.620Z,101931.91
2022-08-31T01:26:49.575Z,101935.09
2022-08-31T01:29:24.075Z,101939.66
2022-08-31T01:31:52.342Z,101940.31
2022-08-31T01:34:20.835Z,101938.75
2022-08-31T01:36:49.292Z,101944.63
2022-08-31T01:39:29.671Z,101941.06
2022-08-31T01:42:16.348Z,101940.84
2022-08-31T01:45:26.458Z,101933.00
2022-08-31T01:47:54.754Z,101937.75
2022-08-31T01:50:23.199Z,101934.34
2022-08-31T01:52:51.406Z,101937.56
2022-08-31T01:55:21.498Z,101935.13
2022-08-31T01:57:49.839Z,101940.34
2022-08-31T02:00:18.379Z,101928.78
2022-08-31T02:02:46.638Z,101930.66
2022-08-31T02:05:15.772Z,101939.09
2022-08-31T02:07:44.477Z,101941.97
2022-08-31T02:10:13.210Z,101941.97
2022-08-31T02:12:43.607Z,101937.19
2022-08-31T02:15:13.121Z,101937.19
2022-08-31T02:17:41.600Z,101935.47
2022-08-31T02:20:12.128Z,101933.06
2022-08-31T02:22:40.678Z,101929.66
2022-08-31T02:25:10.996Z,101932.38
2022-08-31T02:27:39.764Z,101931.38
2022-08-31T02:30:12.088Z,101931.38
2022-08-31T02:32:40.466Z,101925.41
2022-08-31T02:35:44.251Z,101927.81
2022-08-31T02:38:13.127Z,101923.38
2022-08-31T02:40:42.566Z,101924.53
2022-08-31T02:43:19.404Z,101928.09
2022-08-31T02:45:55.070Z,101922.84
2022-08-31T02:48:23.538Z,101923.88
2022-08-31T02:50:54.685Z,101925.00
2022-08-31T02:53:28.429Z,101931.28
2022-08-31T02:55:56.809Z,101927.03
2022-08-31T02:58:25.080Z,101925.47
2022-08-31T03:00:54.898Z,101920.03
2022-08-31T03:03:23.125Z,101922.22
2022-08-31T03:05:52.121Z,101920.66
2022-08-31T03:08:20.396Z,101916.72
2022-08-31T03:10:48.822Z,101918.03
2022-08-31T03:13:20.455Z,101909.19
2022-08-31T03:15:48.977Z,101914.91
2022-08-31T03:18:18.767Z,101914.34
2022-08-31T03:20:47.026Z,101914.34
2022-08-31T03:23:15.551Z,101921.06
2022-08-31T03:25:44.022Z,101916.66
2022-08-31T03:28:12.892Z,101924.78
2022-08-31T03:30:42.232Z,101929.75
2022-08-31T03:33:10.897Z,101923.50
2022-08-31T03:35:43.912Z,101928.47
2022-08-31T03:38:12.885Z,101922.91
2022-08-31T03:40:42.140Z,101924.47
2022-08-31T03:43:11.455Z,101923.13
2022-08-31T03:45:40.417Z,101918.59
2022-08-31T03:48:12.577Z,101916.84
2022-08-31T03:50:44.583Z,101919.03
2022-08-31T03:53:17.213Z,101923.28
2022-08-31T03:55:50.219Z,101918.88
2022-08-31T03:58:18.513Z,101920.88
2022-08-31T04:00:47.114Z,101915.47
2022-08-31T04:03:15.315Z,101923.75
2022-08-31T04:05:45.962Z,101922.91
2022-08-31T04:08:17.466Z,101920.78
2022-08-31T04:10:47.020Z,101929.94
2022-08-31T04:13:15.218Z,101922.66
2022-08-31T04:15:43.436Z,101925.81
2022-08-31T04:18:14.135Z,101924.97
2022-08-31T04:20:42.310Z,101922.25
2022-08-31T04:23:12.000Z,101921.84
2022-08-31T04:25:43.899Z,101922.00
2022-08-31T04:28:12.698Z,101930.28
2022-08-31T04:30:42.401Z,101936.72
2022-08-31T04:33:10.859Z,101939.56
2022-08-31T04:35:40.999Z,101944.28
2022-08-31T04:38:10.135Z,101943.44
2022-08-31T04:40:41.411Z,101939.03
2022-08-31T04:43:10.201Z,101947.44
2022-08-31T04:45:42.606Z,101944.06
2022-08-31T04:48:15.860Z,101947.59
2022-08-31T04:50:44.184Z,101949.59
2022-08-31T04:53:13.061Z,101949.06
2022-08-31T04:55:45.247Z,101949.06
2022-08-31T04:58:13.929Z,101957.19
2022-08-31T05:00:44.079Z,101955.47
2022-08-31T05:03:12.329Z,101954.63
2022-08-31T05:05:40.874Z,101953.94
2022-08-31T05:08:09.179Z,101949.53
2022-08-31T05:10:37.589Z,101945.13
2022-08-31T05:13:07.609Z,101940.13
2022-08-31T05:15:36.132Z,101948.09
2022-08-31T05:18:04.609Z,101943.53
2022-08-31T05:20:33.038Z,101946.25
2022-08-31T05:23:01.433Z,101940.25
2022-08-31T05:25:29.723Z,101945.84
2022-08-31T05:27:57.885Z,101945.69
2022-08-31T05:30:29.143Z,101954.13
2022-08-31T05:32:57.332Z,101945.16
2022-08-31T05:35:25.950Z,101950.56
2022-08-31T05:37:54.671Z,101954.53
2022-08-31T05:40:22.939Z,101954.53
2022-08-31T05:42:51.170Z,101958.22
2022-08-31T05:45:19.732Z,101959.97
2022-08-31T05:47:49.593Z,101957.94
2022-08-31T05:50:18.718Z,101960.19
2022-08-31T05:52:47.238Z,101962.47
2022-08-31T05:55:15.465Z,101961.59
2022-08-31T05:57:43.783Z,101967.59
2022-08-31T06:00:13.162Z,101963.25
2022-08-31T06:02:42.466Z,101964.06
2022-08-31T06:05:12.301Z,101968.63
2022-08-31T06:07:40.656Z,101966.03
2022-08-31T06:10:10.387Z,101957.44
2022-08-31T06:12:39.258Z,101966.00
2022-08-31T06:15:08.577Z,101956.22
2022-08-31T06:17:37.605Z,101964.91
2022-08-31T06:20:07.594Z,101962.44
2022-08-31T06:22:38.168Z,101972.69
2022-08-31T06:25:07.793Z,101971.34
2022-08-31T06:27:38.972Z,101977.03
2022-08-31T06:30:08.863Z,101978.41
2022-08-31T06:32:37.443Z,101979.66
2022-08-31T06:35:06.307Z,101983.59
2022-08-31T06:37:34.494Z,101980.72
2022-08-31T06:40:05.761Z,101988.94
2022-08-31T06:42:34.127Z,101992.50
2022-08-31T06:45:02.280Z,102003.59
2022-08-31T06:47:30.565Z,101992.44
2022-08-31T06:49:59.104Z,102003.66
2022-08-31T06:52:27.502Z,101999.50
2022-08-31T06:54:58.867Z,102009.03
2022-08-31T06:57:31.759Z,102007.25
2022-08-31T07:00:02.166Z,102010.34
2022-08-31T07:02:34.997Z,102017.31
2022-08-31T07:05:04.634Z,101997.69
2022-08-31T07:07:32.877Z,102003.63
2022-08-31T07:10:01.394Z,102006.34
2022-08-31T07:12:31.536Z,102007.06
2022-08-31T07:15:01.271Z,102015.88
2022-08-31T07:17:29.556Z,102020.28
2022-08-31T07:19:58.512Z,102015.56
2022-08-31T07:22:26.953Z,102017.56
2022-08-31T07:24:55.130Z,102012.16
2022-08-31T07:27:23.584Z,102025.25
2022-08-31T07:29:53.385Z,102024.94
2022-08-31T07:32:23.079Z,102028.13
2022-08-31T07:34:58.477Z,102026.63
2022-08-31T07:37:45.359Z,102028.56
2022-08-31T07:40:31.274Z,102027.50
2022-08-31T07:43:04.830Z,102016.31
2022-08-31T07:45:39.197Z,102026.81
2022-08-31T07:48:08.463Z,102014.63
2022-08-31T07:50:38.358Z,102013.44
2022-08-31T07:53:08.889Z,102019.72
2022-08-31T07:55:37.874Z,102026.63
2022-08-31T07:58:07.272Z,102016.50
2022-08-31T08:00:40.156Z,102018.56
2022-08-31T08:03:15.272Z,102021.09
2022-08-31T08:05:45.550Z,102011.63
2022-08-31T08:08:15.746Z,102017.38
2022-08-31T08:10:52.225Z,102018.38
2022-08-31T08:13:23.339Z,102026.16
2022-08-31T08:15:53.856Z,102021.41
2022-08-31T08:18:22.802Z,102017.38
2022-08-31T08:23:39.629Z,102016.03
2022-08-31T08:26:21.003Z,102012.84
2022-08-31T08:29:07.891Z,102013.50
2022-08-31T08:31:38.843Z,102019.34
2022-08-31T08:34:13.450Z,102022.56
2022-08-31T08:36:45.343Z,102019.94
2022-08-31T08:39:23.932Z,102030.53
2022-08-31T08:41:59.441Z,102029.19
2022-08-31T08:44:36.187Z,102016.66
2022-08-31T08:47:39.444Z,102019.38
2022-08-31T08:50:20.054Z,102010.06
2022-08-31T08:52:49.872Z,102021.78
2022-08-31T08:55:22.406Z,102007.53
2022-08-31T08:57:53.112Z,102008.72
2022-08-31T09:00:28.736Z,102012.50
2022-08-31T09:03:02.370Z,102010.63
2022-08-31T09:05:54.398Z,102001.97
2022-08-31T09:08:37.792Z,102000.66
2022-08-31T09:11:17.800Z,102008.84
2022-08-31T09:14:07.584Z,101994.91
2022-08-31T09:16:48.266Z,101998.78
2022-08-31T09:19:22.061Z,101989.28
2022-08-31T09:21:53.108Z,101991.31
2022-08-31T09:24:28.343Z,101984.53
2022-08-31T09:27:05.222Z,101992.00
2022-08-31T09:29:34.330Z,101985.88
2022-08-31T09:32:24.833Z,101991.50
2022-08-31T09:35:10.039Z,101994.06
2022-08-31T09:37:47.796Z,101996.09
2022-08-31T09:40:29.308Z,101994.91
2022-08-31T09:43:07.222Z,101996.41
2022-08-31T09:45:41.426Z,101989.28
2022-08-31T09:48:22.544Z,101986.22
2022-08-31T09:51:16.963Z,101989.28
2022-08-31T09:54:22.755Z,101981.09
2022-08-31T09:57:05.390Z,101986.69
2022-08-31T09:59:43.513Z,101986.50
2022-08-31T10:02:39.768Z,101986.31
2022-08-31T10:05:33.982Z,101997.19
2022-08-31T10:08:22.735Z,101978.22
2022-08-31T10:10:53.349Z,101992.19
2022-08-31T10:13:49.677Z,101994.00
2022-08-31T10:16:30.731Z,101981.38
2022-08-31T10:19:05.570Z,101988.50
2022-08-31T10:21:52.469Z,101982.84
2022-08-31T10:24:51.904Z,101976.53
2022-08-31T10:27:35.265Z,101982.81
2022-08-31T10:30:12.442Z,101988.72
2022-08-31T10:32:49.429Z,101977.63
2022-08-31T10:35:34.614Z,101972.34
2022-08-31T10:38:29.463Z,101982.41
2022-08-31T10:41:17.188Z,101973.31
2022-08-31T10:43:53.989Z,101991.03
2022-08-31T10:46:26.687Z,101984.00
2022-08-31T10:49:04.860Z,101974.56
2022-08-31T10:52:02.683Z,101981.47
2022-08-31T10:54:43.599Z,101980.47
2022-08-31T11:02:00.983Z,101974.69
2022-08-31T11:05:04.233Z,101971.81
2022-08-31T11:07:41.990Z,101957.25
2022-08-31T11:10:29.203Z,101961.47
2022-08-31T11:13:04.026Z,101970.84
2022-08-31T11:15:52.010Z,101951.09
2022-08-31T11:18:43.771Z,101956.09
2022-08-31T11:21:43.421Z,101952.88
2022-08-31T11:24:38.796Z,101962.47
2022-08-31T11:27:23.816Z,101953.31
2022-08-31T11:30:02.220Z,101954.06
2022-08-31T11:32:37.648Z,101956.88
2022-08-31T11:35:10.736Z,101962.63
2022-08-31T11:38:00.992Z,101956.59
2022-08-31T11:41:11.511Z,101954.78
2022-08-31T11:44:09.507Z,101949.97
2022-08-31T11:47:05.117Z,101949.56
2022-08-31T11:49:43.924Z,101943.69
2022-08-31T11:52:32.352Z,101944.56
2022-08-31T11:55:21.217Z,101933.00
2022-08-31T11:58:20.195Z,101939.75
2022-08-31T12:01:06.138Z,101940.19
2022-08-31T12:04:04.020Z,101932.38
2022-08-31T12:07:00.164Z,101943.13
2022-08-31T12:10:06.456Z,101933.59
2022-08-31T12:13:24.315Z,101933.44
2022-08-31T12:16:21.357Z,101930.75
2022-08-31T12:19:11.254Z,101928.00
2022-08-31T12:22:05.448Z,101928.66
2022-08-31T12:24:49.291Z,101930.13
2022-08-31T12:27:36.115Z,101924.00
2022-08-31T12:30:20.350Z,101916.84
2022-08-31T12:33:03.403Z,101920.00
2022-08-31T12:35:41.894Z,101919.97
2022-08-31T12:38:18.482Z,101923.78
2022-08-31T12:40:49.999Z,101917.28
2022-08-31T12:43:23.826Z,101900.78
2022-08-31T12:49:05.775Z,101910.28
2022-08-31T12:52:03.507Z,101897.38
2022-08-31T12:54:59.990Z,101895.34
2022-08-31T12:57:55.278Z,101899.78
2022-08-31T13:00:43.945Z,101901.66
2022-08-31T13:03:22.888Z,101897.03
2022-08-31T13:06:20.138Z,101895.75
2022-08-31T13:08:54.623Z,101896.59
2022-08-31T13:11:41.200Z,101897.03
2022-08-31T13:14:37.492Z,101894.06
2022-08-31T13:17:12.909Z,101885.81
2022-08-31T13:19:58.907Z,101890.47
2022-08-31T13:22:33.835Z,101892.56
2022-08-31T13:25:19.571Z,101888.56
2022-08-31T13:27:54.053Z,101893.66
2022-08-31T13:30:25.656Z,101887.31
2022-08-31T13:32:59.547Z,101883.88
2022-08-31T13:35:37.265Z,101878.66
2022-08-31T13:38:14.840Z,101862.47
2022-08-31T13:41:02.643Z,101863.72
2022-08-31T13:43:38.737Z,101861.19
2022-08-31T13:46:16.872Z,101872.47
2022-08-31T13:49:02.158Z,101856.84
2022-08-31T13:52:01.860Z,101862.28
2022-08-31T13:54:34.649Z,101853.09
2022-08-31T13:57:32.869Z,101842.53
2022-08-31T14:00:28.788Z,101843.25
2022-08-31T14:02:58.694Z,101845.38
2022-08-31T14:05:36.335Z,101840.34
2022-08-31T14:08:09.930Z,101834.59
2022-08-31T14:10:46.756Z,101846.25
2022-08-31T14:16:27.230Z,101836.41
2022-08-31T14:19:05.431Z,101833.09
2022-08-31T14:24:34.353Z,101841.13
2022-08-31T14:27:04.919Z,101842.53
2022-08-31T14:29:44.142Z,101843.66
2022-08-31T14:32:22.535Z,101835.22
2022-08-31T14:38:03.074Z,101837.72
2022-08-31T14:40:37.711Z,101839.69
2022-08-31T14:43:07.670Z,101840.22
2022-08-31T14:45:44.659Z,101841.03
2022-08-31T14:48:14.789Z,101837.63
2022-08-31T14:53:32.164Z,101827.47
2022-08-31T14:56:03.667Z,101816.81
2022-08-31T14:58:55.808Z,101819.78
2022-08-31T15:01:44.861Z,101820.75
2022-08-31T15:04:29.111Z,101822.44
2022-08-31T15:07:10.019Z,101813.06
2022-08-31T15:09:43.684Z,101808.38
2022-08-31T15:12:14.894Z,101804.03
2022-08-31T15:15:04.774Z,101802.25
2022-08-31T15:17:36.532Z,101799.94
2022-08-31T15:23:11.550Z,101796.38
2022-08-31T15:26:12.645Z,101790.22
2022-08-31T15:28:42.738Z,101790.16
2022-08-31T15:31:27.045Z,101791.97
2022-08-31T15:36:49.675Z,101792.84
2022-08-31T15:39:20.680Z,101787.84
2022-08-31T15:41:53.580Z,101778.78
2022-08-31T15:44:29.240Z,101778.22
2022-08-31T15:47:18.848Z,101779.47
2022-08-31T15:49:47.174Z,101778.63
2022-08-31T15:52:37.649Z,101762.06
2022-08-31T15:55:11.144Z,101775.00
2022-08-31T15:57:41.377Z,101766.75
2022-08-31T16:00:17.003Z,101770.31
2022-08-31T16:02:56.375Z,101772.97
2022-08-31T16:06:30.142Z,101768.50
2022-08-31T16:08:59.584Z,101752.84
2022-08-31T16:11:56.280Z,101742.69
2022-08-31T16:14:38.720Z,101748.81
2022-08-31T16:17:23.244Z,101743.28
2022-08-31T16:20:15.767Z,101741.81
2022-08-31T16:22:55.814Z,101736.75
2022-08-31T16:25:30.093Z,101737.72
2022-08-31T16:28:14.965Z,101737.91
2022-08-31T16:31:20.348Z,101723.78
2022-08-31T16:33:52.943Z,101723.41
2022-08-31T16:36:30.510Z,101728.13
2022-08-31T16:39:02.260Z,101718.22
2022-08-31T16:41:43.043Z,101720.66
2022-08-31T16:44:19.687Z,101720.13
2022-08-31T16:46:54.773Z,101721.81
2022-08-31T16:49:39.289Z,101716.50
2022-08-31T16:53:08.594Z,101709.16
2022-08-31T16:55:48.010Z,101726.44
2022-08-31T17:01:41.943Z,101713.66
2022-08-31T17:25:48.333Z,101697.53
2022-08-31T17:28:28.413Z,101701.72
2022-08-31T17:39:30.413Z,101694.31
2022-08-31T17:44:55.048Z,101696.41
2022-08-31T17:47:28.580Z,101693.25
2022-08-31T17:55:53.100Z,101688.91
2022-08-31T17:58:23.666Z,101686.81
2022-08-31T18:01:02.248Z,101687.50
2022-08-31T18:03:31.040Z,101683.56
2022-08-31T18:06:00.812Z,101685.69
2022-08-31T18:08:42.638Z,101681.00
2022-08-31T18:14:11.964Z,101672.13
2022-08-31T18:16:43.955Z,101681.78
2022-08-31T18:19:13.538Z,101679.06
2022-08-31T18:21:47.918Z,101675.75
2022-08-31T18:24:17.553Z,101678.19
2022-08-31T18:26:48.575Z,101686.47
2022-08-31T18:29:21.490Z,101675.22
2022-08-31T18:31:56.909Z,101675.09
2022-08-31T18:34:29.920Z,101680.06
2022-08-31T18:36:58.897Z,101680.00
2022-08-31T18:39:50.978Z,101685.44
2022-08-31T18:43:27.933Z,101674.44
2022-08-31T18:45:57.841Z,101679.97
2022-08-31T18:48:28.924Z,101676.31
2022-08-31T18:51:05.404Z,101690.75
2022-08-31T18:53:34.811Z,101687.41
2022-08-31T18:56:08.657Z,101680.19
2022-08-31T18:58:37.800Z,101670.28
2022-08-31T19:01:11.747Z,101681.34
2022-08-31T19:03:42.665Z,101691.34
2022-08-31T19:06:19.028Z,101684.63
2022-08-31T19:08:48.586Z,101692.22
2022-08-31T19:11:19.268Z,101691.66
2022-08-31T19:13:51.202Z,101700.75
2022-08-31T19:16:22.342Z,101697.56
2022-08-31T19:18:56.893Z,101690.09
2022-08-31T19:21:28.219Z,101694.81
2022-08-31T19:24:00.338Z,101690.25
2022-08-31T19:26:31.791Z,101696.63
2022-08-31T19:29:09.011Z,101695.66
2022-08-31T19:31:39.117Z,101697.34
2022-08-31T19:34:16.026Z,101688.78
2022-08-31T19:36:45.840Z,101692.59
2022-08-31T19:39:22.205Z,101699.59
2022-08-31T19:41:54.536Z,101696.91
2022-08-31T19:44:25.878Z,101695.47
2022-08-31T19:46:59.860Z,101696.00
2022-08-31T19:49:33.956Z,101701.75
2022-08-31T19:52:06.338Z,101701.41
2022-08-31T19:54:39.364Z,101700.19
2022-08-31T19:57:10.079Z,101698.59
2022-08-31T19:59:41.528Z,101709.59
2022-08-31T20:02:12.912Z,101706.69
2022-08-31T20:04:45.960Z,101713.53
2022-08-31T20:07:14.686Z,101712.75
2022-08-31T20:09:42.995Z,101709.56
2022-08-31T20:12:11.511Z,101707.78
2022-08-31T20:14:47.633Z,101710.41
2022-08-31T20:17:16.242Z,101712.72
2022-08-31T20:19:48.499Z,101710.53
2022-08-31T20:22:26.217Z,101711.78
2022-08-31T20:25:01.222Z,101711.59
2022-08-31T20:27:31.268Z,101706.69
2022-08-31T20:29:59.882Z,101708.44
2022-08-31T20:32:29.160Z,101716.31
2022-08-31T20:35:00.124Z,101719.69
2022-08-31T20:37:28.467Z,101720.59
2022-08-31T20:39:56.965Z,101722.31
2022-08-31T20:42:26.601Z,101721.63
2022-08-31T20:44:56.149Z,101713.84
2022-08-31T20:47:54.039Z,101712.94
2022-08-31T20:50:24.595Z,101710.63
2022-08-31T20:52:52.988Z,101709.09
2022-08-31T20:55:22.797Z,101708.25
2022-08-31T20:57:51.535Z,101712.00
2022-08-31T21:00:21.272Z,101710.31
2022-08-31T21:02:50.043Z,101706.06
2022-08-31T21:05:37.823Z,101699.25
2022-08-31T21:08:08.865Z,101698.91
2022-08-31T21:10:40.800Z,101702.69
2022-08-31T21:13:12.123Z,101704.06
2022-08-31T21:15:46.644Z,101705.44
2022-08-31T21:18:17.853Z,101713.94
2022-08-31T21:20:46.721Z,101703.56
2022-08-31T21:23:16.952Z,101702.72
2022-08-31T21:25:47.171Z,101710.91
2022-08-31T21:28:17.382Z,101707.53
2022-08-31T21:30:47.329Z,101709.75
2022-08-31T21:33:15.906Z,101715.84
2022-08-31T21:35:44.266Z,101701.09
2022-08-31T21:38:13.305Z,101710.28
2022-08-31T21:40:49.868Z,101716.78
2022-08-31T21:43:18.525Z,101716.09
2022-08-31T21:45:47.148Z,101708.09
2022-08-31T21:48:15.484Z,101712.72
2022-08-31T21:50:44.499Z,101713.38
2022-08-31T21:53:12.968Z,101711.03
2022-08-31T21:55:41.567Z,101704.72
2022-08-31T21:58:11.895Z,101707.59
2022-08-31T22:00:42.296Z,101706.75
2022-08-31T22:03:11.306Z,101716.47
2022-08-31T22:05:41.880Z,101715.97
2022-08-31T22:08:10.377Z,101713.59
2022-08-31T22:10:41.261Z,101708.00
2022-08-31T22:13:13.141Z,101713.78
2022-08-31T22:15:42.735Z,101707.81
2022-08-31T22:18:58.086Z,101717.84
2022-08-31T22:21:00.619Z,101709.03
2022-08-31T22:23:29.230Z,101708.00
2022-08-31T22:25:58.109Z,101707.34
2022-08-31T22:28:28.000Z,101714.16
2022-08-31T22:30:57.222Z,101708.72
2022-08-31T22:33:25.674Z,101709.56
2022-08-31T22:35:54.232Z,101705.81
2022-08-31T22:38:24.134Z,101704.31
2022-08-31T22:40:52.591Z,101711.31
2022-08-31T22:43:21.004Z,101707.91
2022-08-31T22:45:51.644Z,101704.16
2022-08-31T22:48:20.206Z,101703.38
2022-08-31T22:50:48.793Z,101705.72
2022-08-31T22:53:17.076Z,101705.41
2022-08-31T22:55:45.251Z,101693.47
2022-08-31T22:58:14.554Z,101696.19
2022-08-31T23:00:47.978Z,101695.53
2022-08-31T23:03:18.395Z,101694.53
2022-08-31T23:05:48.189Z,101688.75
2022-08-31T23:08:16.506Z,101692.50
2022-08-31T23:10:44.846Z,101693.53
2022-08-31T23:13:13.262Z,101695.41
2022-08-31T23:15:42.037Z,101686.75
2022-08-31T23:18:13.570Z,101696.25
2022-08-31T23:20:43.377Z,101687.78
2022-08-31T23:23:11.695Z,101688.97
2022-08-31T23:25:41.118Z,101682.00
2022-08-31T23:28:09.649Z,101683.69
2022-08-31T23:30:38.323Z,101677.56
2022-08-31T23:33:07.261Z,101687.63
2022-08-31T23:35:35.697Z,101676.06
2022-08-31T23:38:05.465Z,101683.91
2022-08-31T23:40:35.597Z,101682.38
2022-08-31T23:43:04.218Z,101685.78
2022-08-31T23:45:33.871Z,101682.38
2022-08-31T23:48:02.068Z,101676.28
2022-08-31T23:50:31.837Z,101670.66
2022-08-31T23:53:00.368Z,101672.03
2022-08-31T23:55:31.175Z,101671.88
2022-08-31T23:57:59.482Z,101674.25
